createdAt,value
2023-02-11T00:01:27.766Z,5.10
2023-02-11T00:03:55.196Z,4.88
2023-02-11T00:06:23.006Z,5.35
2023-02-11T00:08:49.856Z,5.07
2023-02-11T00:11:19.034Z,4.28
2023-02-11T00:13:46.865Z,4.80
2023-02-11T00:16:19.928Z,5.05
2023-02-11T00:18:47.607Z,5.03
2023-02-11T00:21:17.934Z,4.95
2023-02-11T00:23:46.217Z,4.80
2023-02-11T00:26:27.446Z,4.90
2023-02-11T00:28:54.457Z,5.30
2023-02-11T00:31:22.937Z,4.95
2023-02-11T00:33:50.376Z,4.63
2023-02-11T00:36:26.401Z,4.57
2023-02-11T00:38:54.438Z,4.63
2023-02-11T00:41:22.150Z,5.55
2023-02-11T00:43:49.105Z,5.18
2023-02-11T00:46:20.850Z,4.85
2023-02-11T00:48:48.185Z,4.15
2023-02-11T00:51:15.310Z,4.25
2023-02-11T00:53:42.185Z,4.50
2023-02-11T00:56:09.806Z,3.78
2023-02-11T00:58:36.845Z,3.78
2023-02-11T01:01:04.302Z,4.70
2023-02-11T01:03:31.491Z,4.00
2023-02-11T01:05:58.381Z,4.28
2023-02-11T01:08:25.533Z,4.15
2023-02-11T01:10:57.899Z,5.25
2023-02-11T01:13:25.358Z,5.60
2023-02-11T01:15:54.770Z,4.97
2023-02-11T01:18:21.858Z,5.65
2023-02-11T01:20:49.199Z,5.70
2023-02-11T01:23:16.668Z,5.15
2023-02-11T01:25:44.382Z,5.15
2023-02-11T01:28:19.188Z,4.38
2023-02-11T01:30:46.454Z,4.15
2023-02-11T01:33:13.529Z,4.22
2023-02-11T01:35:40.609Z,5.07
2023-02-11T01:38:14.020Z,4.57
2023-02-11T01:40:40.952Z,5.35
2023-02-11T01:43:10.649Z,5.10
2023-02-11T01:45:47.080Z,5.65
2023-02-11T01:48:19.864Z,4.72
2023-02-11T01:50:53.497Z,4.80
2023-02-11T01:53:39.971Z,5.13
2023-02-11T01:56:27.057Z,4.85
2023-02-11T01:59:02.870Z,4.70
2023-02-11T02:01:33.758Z,5.22
2023-02-11T02:04:05.536Z,5.55
2023-02-11T02:06:35.538Z,4.90
2023-02-11T02:09:11.418Z,4.78
2023-02-11T02:11:38.489Z,4.15
2023-02-11T02:14:05.452Z,4.28
2023-02-11T02:16:35.093Z,4.15
2023-02-11T02:19:19.963Z,3.60
2023-02-11T02:22:05.132Z,3.95
2023-02-11T02:24:51.777Z,4.00
2023-02-11T02:27:29.210Z,4.43
2023-02-11T02:30:40.546Z,4.20
2023-02-11T02:33:22.395Z,4.22
2023-02-11T02:36:23.397Z,3.83
2023-02-11T02:38:59.212Z,4.13
2023-02-11T02:41:32.608Z,3.45
2023-02-11T02:44:00.205Z,4.40
2023-02-11T02:46:30.247Z,4.13
2023-02-11T02:48:58.274Z,4.28
2023-02-11T02:51:40.225Z,4.63
2023-02-11T02:54:07.067Z,5.18
2023-02-11T02:57:08.426Z,4.82
2023-02-11T03:00:02.424Z,4.10
2023-02-11T03:02:44.130Z,4.25
2023-02-11T03:05:19.021Z,4.47
2023-02-11T03:07:55.408Z,4.80
2023-02-11T03:10:26.113Z,4.28
2023-02-11T03:12:54.787Z,4.63
2023-02-11T03:15:24.826Z,6.47
2023-02-11T03:17:54.900Z,4.97
2023-02-11T03:20:23.135Z,3.63
2023-02-11T03:22:56.060Z,3.90
2023-02-11T03:25:30.079Z,4.07
2023-02-11T03:28:14.859Z,4.07
2023-02-11T03:30:49.433Z,4.05
2023-02-11T03:33:51.757Z,4.55
2023-02-11T03:36:27.968Z,4.97
2023-02-11T03:38:58.780Z,5.28
2023-02-11T03:41:26.241Z,4.50
2023-02-11T03:43:58.341Z,4.78
2023-02-11T03:46:31.976Z,4.80
2023-02-11T03:49:04.261Z,3.88
2023-02-11T03:51:33.374Z,4.45
2023-02-11T03:54:04.638Z,4.28
2023-02-11T03:56:36.734Z,4.15
2023-02-11T03:59:03.639Z,4.32
2023-02-11T04:01:30.915Z,3.78
2023-02-11T04:03:57.803Z,4.70
2023-02-11T04:06:24.635Z,4.80
2023-02-11T04:08:51.500Z,4.82
2023-02-11T04:11:18.624Z,5.25
2023-02-11T04:13:45.427Z,4.20
2023-02-11T04:16:12.419Z,4.28
2023-02-11T04:18:39.257Z,3.92
2023-02-11T04:21:06.268Z,4.53
2023-02-11T04:23:33.208Z,4.25
2023-02-11T04:25:59.997Z,4.05
2023-02-11T04:28:29.525Z,3.97
2023-02-11T04:30:56.543Z,3.97
2023-02-11T04:33:23.493Z,4.10
2023-02-11T04:35:50.695Z,6.30
2023-02-11T04:38:17.827Z,5.13
2023-02-11T04:40:44.966Z,5.18
2023-02-11T04:43:11.904Z,4.28
2023-02-11T04:45:38.758Z,4.32
2023-02-11T04:48:05.743Z,25.45
2023-02-11T04:50:32.872Z,42.25
2023-02-11T04:52:59.644Z,29.88
2023-02-11T04:55:26.889Z,26.60
2023-02-11T04:57:53.860Z,18.20
2023-02-11T05:00:20.936Z,10.65
2023-02-11T05:02:47.748Z,13.13
2023-02-11T05:05:14.556Z,6.28
2023-02-11T05:07:41.310Z,12.55
2023-02-11T05:10:08.367Z,24.75
2023-02-11T05:12:35.154Z,31.83
2023-02-11T05:15:01.986Z,9.07
2023-02-11T05:17:28.864Z,6.57
2023-02-11T05:19:55.707Z,6.65
2023-02-11T05:22:22.578Z,10.05
2023-02-11T05:24:50.247Z,38.63
2023-02-11T05:27:17.112Z,23.55
2023-02-11T05:29:44.085Z,12.70
2023-02-11T05:32:10.964Z,21.88
2023-02-11T05:34:37.899Z,9.50
2023-02-11T05:37:04.856Z,5.82
2023-02-11T05:39:31.696Z,5.45
2023-02-11T05:41:58.514Z,5.20
2023-02-11T05:44:25.315Z,5.78
2023-02-11T05:46:52.151Z,6.43
2023-02-11T05:49:19.081Z,6.00
2023-02-11T05:51:46.037Z,6.28
2023-02-11T05:54:13.176Z,6.03
2023-02-11T05:56:40.041Z,5.90
2023-02-11T05:59:06.902Z,7.43
2023-02-11T06:01:33.854Z,7.15
2023-02-11T06:04:00.868Z,14.43
2023-02-11T06:06:27.961Z,8.80
2023-02-11T06:08:54.935Z,6.75
2023-02-11T06:11:21.799Z,8.32
2023-02-11T06:13:48.648Z,8.23
2023-02-11T06:16:15.695Z,19.02
2023-02-11T06:18:42.809Z,33.22
2023-02-11T06:21:11.321Z,22.67
2023-02-11T06:23:38.647Z,12.02
2023-02-11T06:26:15.815Z,12.13
2023-02-11T06:28:42.740Z,10.45
2023-02-11T06:31:10.427Z,15.40
2023-02-11T06:33:38.578Z,11.15
2023-02-11T06:36:12.246Z,7.32
2023-02-11T06:38:39.086Z,7.20
2023-02-11T06:41:05.903Z,6.30
2023-02-11T06:43:32.791Z,7.40
2023-02-11T06:45:59.601Z,8.95
2023-02-11T06:48:26.544Z,6.70
2023-02-11T06:50:53.505Z,9.55
2023-02-11T06:53:20.321Z,7.40
2023-02-11T06:55:47.207Z,8.10
2023-02-11T06:58:14.425Z,6.93
2023-02-11T07:00:41.316Z,8.00
2023-02-11T07:03:08.554Z,7.60
2023-02-11T07:05:37.226Z,7.57
2023-02-11T07:08:04.425Z,7.93
2023-02-11T07:10:31.307Z,11.43
2023-02-11T07:12:58.907Z,8.52
2023-02-11T07:15:26.014Z,6.80
2023-02-11T07:17:52.988Z,11.23
2023-02-11T07:20:20.018Z,8.80
2023-02-11T07:22:46.862Z,12.95
2023-02-11T07:25:13.737Z,12.07
2023-02-11T07:27:40.604Z,10.98
2023-02-11T07:30:08.091Z,9.57
2023-02-11T07:32:34.944Z,11.73
2023-02-11T07:35:01.844Z,14.50
2023-02-11T07:37:28.715Z,10.88
2023-02-11T07:39:55.624Z,14.15
2023-02-11T07:42:22.522Z,14.57
2023-02-11T07:44:50.659Z,8.45
2023-02-11T07:47:17.875Z,9.88
2023-02-11T07:49:45.949Z,8.15
2023-02-11T07:52:12.778Z,11.27
2023-02-11T07:54:39.613Z,13.77
2023-02-11T07:57:06.781Z,9.98
2023-02-11T07:59:33.703Z,6.82
2023-02-11T08:02:00.735Z,6.88
2023-02-11T08:04:27.614Z,5.88
2023-02-11T08:06:58.995Z,6.82
2023-02-11T08:09:26.071Z,6.78
2023-02-11T08:11:52.981Z,6.20
2023-02-11T08:14:20.678Z,7.00
2023-02-11T08:16:47.713Z,6.10
2023-02-11T08:19:16.538Z,5.28
2023-02-11T08:21:44.482Z,5.75
2023-02-11T08:24:11.804Z,6.32
2023-02-11T08:26:38.785Z,6.10
2023-02-11T08:29:11.727Z,5.82
2023-02-11T08:31:41.663Z,6.00
2023-02-11T08:34:10.110Z,6.18
2023-02-11T08:36:38.916Z,6.70
2023-02-11T08:39:18.610Z,6.07
2023-02-11T08:41:52.332Z,6.20
2023-02-11T08:44:20.955Z,5.53
2023-02-11T08:46:48.436Z,5.88
2023-02-11T08:49:16.528Z,6.03
2023-02-11T08:51:44.566Z,5.35
2023-02-11T08:54:12.408Z,5.70
2023-02-11T08:56:39.481Z,5.15
2023-02-11T08:59:07.664Z,4.90
2023-02-11T09:01:35.484Z,6.07
2023-02-11T09:04:03.005Z,6.53
2023-02-11T09:06:30.174Z,4.85
2023-02-11T09:08:59.237Z,5.97
2023-02-11T09:11:30.184Z,5.53
2023-02-11T09:13:57.358Z,6.38
2023-02-11T09:16:27.123Z,5.93
2023-02-11T09:18:56.479Z,5.45
2023-02-11T09:21:23.571Z,5.53
2023-02-11T09:23:50.737Z,5.70
2023-02-11T09:26:29.301Z,5.10
2023-02-11T09:28:56.749Z,5.72
2023-02-11T09:31:26.757Z,6.03
2023-02-11T09:34:00.006Z,5.72
2023-02-11T09:36:30.560Z,5.50
2023-02-11T09:38:59.875Z,6.22
2023-02-11T09:41:46.294Z,6.25
2023-02-11T09:44:39.936Z,6.78
2023-02-11T09:47:18.311Z,6.28
2023-02-11T09:49:50.189Z,6.20
2023-02-11T09:52:47.954Z,5.70
2023-02-11T09:55:20.724Z,6.22
2023-02-11T09:57:47.828Z,5.55
2023-02-11T10:00:33.299Z,6.20
2023-02-11T10:03:21.455Z,5.93
2023-02-11T10:06:01.026Z,6.03
2023-02-11T10:08:37.408Z,6.22
2023-02-11T10:11:30.596Z,5.50
2023-02-11T10:14:16.234Z,6.50
2023-02-11T10:17:14.134Z,6.63
2023-02-11T10:20:11.921Z,5.68
2023-02-11T10:22:55.863Z,6.80
2023-02-11T10:25:28.564Z,6.50
2023-02-11T10:27:59.896Z,5.93
2023-02-11T10:30:35.046Z,8.48
2023-02-11T10:33:17.684Z,6.95
2023-02-11T10:35:45.798Z,7.45
2023-02-11T10:38:13.236Z,9.07
2023-02-11T10:40:40.413Z,7.45
2023-02-11T10:43:14.015Z,6.80
2023-02-11T10:45:55.230Z,5.82
2023-02-11T10:48:41.031Z,6.30
2023-02-11T10:51:12.827Z,7.30
2023-02-11T10:53:41.824Z,6.88
2023-02-11T10:56:12.865Z,7.28
2023-02-11T10:59:05.625Z,6.93
2023-02-11T11:01:49.446Z,6.65
2023-02-11T11:04:34.305Z,6.43
2023-02-11T11:07:31.649Z,6.55
2023-02-11T11:10:24.236Z,7.07
2023-02-11T11:12:51.535Z,7.30
2023-02-11T11:15:22.514Z,7.07
2023-02-11T11:17:51.407Z,6.82
2023-02-11T11:20:24.074Z,6.68
2023-02-11T11:22:54.598Z,6.95
2023-02-11T11:25:26.042Z,7.78
2023-02-11T11:27:56.026Z,7.55
2023-02-11T11:30:27.698Z,6.63
2023-02-11T11:32:55.086Z,6.78
2023-02-11T11:35:28.060Z,6.88
2023-02-11T11:38:02.154Z,6.88
2023-02-11T11:40:34.077Z,6.72
2023-02-11T11:43:15.062Z,6.93
2023-02-11T11:46:00.032Z,7.43
2023-02-11T11:48:42.896Z,6.55
2023-02-11T11:51:13.104Z,7.00
2023-02-11T11:54:02.512Z,6.22
2023-02-11T11:56:34.119Z,7.05
2023-02-11T11:59:06.731Z,9.18
2023-02-11T12:02:17.752Z,6.95
2023-02-11T12:05:06.982Z,7.47
2023-02-11T12:07:45.869Z,11.15
2023-02-11T12:10:32.051Z,6.65
2023-02-11T12:13:08.035Z,6.55
2023-02-11T12:15:55.709Z,6.80
2023-02-11T12:18:38.204Z,6.43
2023-02-11T12:21:37.084Z,6.82
2023-02-11T12:24:49.668Z,7.03
2023-02-11T12:27:35.188Z,6.50
2023-02-11T12:30:23.998Z,7.82
2023-02-11T12:33:24.774Z,6.97
2023-02-11T12:36:15.243Z,6.18
2023-02-11T12:39:26.114Z,6.20
2023-02-11T12:42:40.119Z,7.43
2023-02-11T12:45:14.006Z,7.20
2023-02-11T12:48:11.472Z,7.50
2023-02-11T12:51:07.697Z,6.28
2023-02-11T12:53:53.904Z,6.90
2023-02-11T12:57:14.897Z,9.63
2023-02-11T12:59:52.228Z,6.20
2023-02-11T13:02:41.263Z,7.00
2023-02-11T13:05:33.848Z,5.93
2023-02-11T13:08:30.991Z,5.90
2023-02-11T13:11:21.909Z,11.23
2023-02-11T13:14:17.733Z,13.38
2023-02-11T13:16:47.958Z,7.38
2023-02-11T13:19:14.902Z,8.73
2023-02-11T13:21:44.701Z,6.80
2023-02-11T13:24:36.455Z,8.45
2023-02-11T13:27:37.111Z,6.45
2023-02-11T13:30:28.042Z,5.88
2023-02-11T13:32:54.857Z,6.38
2023-02-11T13:35:40.342Z,6.07
2023-02-11T13:38:24.163Z,5.70
2023-02-11T13:41:28.580Z,6.60
2023-02-11T13:44:20.649Z,6.18
2023-02-11T13:46:56.072Z,5.13
2023-02-11T13:49:32.106Z,6.72
2023-02-11T13:52:01.801Z,6.72
2023-02-11T13:54:33.609Z,5.95
2023-02-11T13:57:22.324Z,7.45
2023-02-11T13:59:53.277Z,5.57
2023-02-11T14:02:49.777Z,5.30
2023-02-11T14:05:41.102Z,5.78
2023-02-11T14:08:29.553Z,6.75
2023-02-11T14:11:08.572Z,5.00
2023-02-11T14:14:03.029Z,5.20
2023-02-11T14:16:37.908Z,6.15
2023-02-11T14:19:06.472Z,5.40
2023-02-11T14:21:38.143Z,6.63
2023-02-11T14:24:07.160Z,5.57
2023-02-11T14:26:43.107Z,5.78
2023-02-11T14:29:25.720Z,6.40
2023-02-11T14:32:38.181Z,5.68
2023-02-11T14:35:22.576Z,11.93
2023-02-11T14:38:21.379Z,5.05
2023-02-11T14:41:11.204Z,5.05
2023-02-11T14:43:48.722Z,4.47
2023-02-11T14:46:17.804Z,4.65
2023-02-11T14:48:50.516Z,6.05
2023-02-11T14:51:23.382Z,9.88
2023-02-11T14:53:57.999Z,6.22
2023-02-11T14:56:27.973Z,7.63
2023-02-11T14:58:55.635Z,11.68
2023-02-11T15:01:34.058Z,7.63
2023-02-11T15:04:03.457Z,10.00
2023-02-11T15:06:37.698Z,11.13
2023-02-11T15:09:13.425Z,8.75
2023-02-11T15:11:43.271Z,6.40
2023-02-11T15:14:16.687Z,8.40
2023-02-11T15:16:45.645Z,11.40
2023-02-11T15:19:29.000Z,11.00
2023-02-11T15:21:57.001Z,10.50
2023-02-11T15:24:27.201Z,9.05
2023-02-11T15:26:56.856Z,7.57
2023-02-11T15:29:29.290Z,8.43
2023-02-11T15:32:12.413Z,13.05
2023-02-11T15:34:39.470Z,40.35
2023-02-11T15:37:06.734Z,46.00
2023-02-11T15:39:38.043Z,14.50
2023-02-11T15:42:29.079Z,16.02
2023-02-11T15:45:14.348Z,14.20
2023-02-11T15:47:48.783Z,12.57
2023-02-11T15:50:37.152Z,11.60
2023-02-11T15:53:14.264Z,12.05
2023-02-11T15:55:42.143Z,17.95
2023-02-11T15:58:10.908Z,20.35
2023-02-11T16:00:46.856Z,19.73
2023-02-11T16:03:32.575Z,26.92
2023-02-11T16:06:41.613Z,25.92
2023-02-11T16:09:08.444Z,35.10
2023-02-11T16:11:53.839Z,27.63
2023-02-11T16:14:32.927Z,22.60
2023-02-11T16:17:04.950Z,25.27
2023-02-11T16:19:34.070Z,38.22
2023-02-11T16:22:10.296Z,40.20
2023-02-11T16:24:39.086Z,40.92
2023-02-11T16:27:30.661Z,43.03
2023-02-11T16:29:58.872Z,41.67
2023-02-11T16:32:28.715Z,56.13
2023-02-11T16:34:58.751Z,56.08
2023-02-11T16:37:26.117Z,57.45
2023-02-11T16:39:57.032Z,47.85
2023-02-11T16:42:24.580Z,41.90
2023-02-11T16:44:51.554Z,41.75
2023-02-11T16:47:31.180Z,39.92
2023-02-11T16:49:59.171Z,43.22
2023-02-11T16:52:26.555Z,42.72
2023-02-11T16:54:53.650Z,41.17
2023-02-11T16:57:23.366Z,41.95
2023-02-11T16:59:51.197Z,42.70
2023-02-11T17:02:26.079Z,43.80
2023-02-11T17:04:54.830Z,42.63
2023-02-11T17:07:22.189Z,47.97
2023-02-11T17:09:49.044Z,53.92
2023-02-11T17:12:15.920Z,59.28
2023-02-11T17:14:43.668Z,77.20
2023-02-11T17:17:11.345Z,125.68
2023-02-11T17:19:38.757Z,111.40
2023-02-11T17:22:06.271Z,84.45
2023-02-11T17:24:33.130Z,66.93
2023-02-11T17:27:00.006Z,60.13
2023-02-11T17:29:27.212Z,51.58
2023-02-11T17:31:54.509Z,51.78
2023-02-11T17:34:22.512Z,42.35
2023-02-11T17:36:50.064Z,23.65
2023-02-11T17:39:16.972Z,30.27
2023-02-11T17:41:43.785Z,28.25
2023-02-11T17:44:12.594Z,27.33
2023-02-11T17:46:39.776Z,32.15
2023-02-11T17:49:06.620Z,29.38
2023-02-11T17:51:36.101Z,32.53
2023-02-11T17:54:06.791Z,33.13
2023-02-11T17:56:35.411Z,35.20
2023-02-11T17:59:03.246Z,45.00
2023-02-11T18:01:31.834Z,50.67
2023-02-11T18:03:59.044Z,41.33
2023-02-11T18:06:26.315Z,28.33
2023-02-11T18:08:54.585Z,15.60
2023-02-11T18:11:25.232Z,28.35
2023-02-11T18:13:54.577Z,29.88
2023-02-11T18:16:22.444Z,26.52
2023-02-11T18:18:49.917Z,27.27
2023-02-11T18:21:19.913Z,40.00
2023-02-11T18:23:47.601Z,34.70
2023-02-11T18:26:15.920Z,31.15
2023-02-11T18:28:45.733Z,36.30
2023-02-11T18:31:14.275Z,34.95
2023-02-11T18:33:42.010Z,29.45
2023-02-11T18:36:13.879Z,31.15
2023-02-11T18:38:41.746Z,30.48
2023-02-11T18:41:08.677Z,29.52
2023-02-11T18:43:36.389Z,29.98
2023-02-11T18:46:09.167Z,28.05
2023-02-11T18:48:36.029Z,34.83
2023-02-11T18:51:02.931Z,32.72
2023-02-11T18:53:29.933Z,34.05
2023-02-11T18:55:56.751Z,31.35
2023-02-11T18:58:23.659Z,31.23
2023-02-11T19:00:50.777Z,30.75
2023-02-11T19:03:17.645Z,30.42
2023-02-11T19:05:46.881Z,30.55
2023-02-11T19:08:14.420Z,31.45
2023-02-11T19:10:43.210Z,37.70
2023-02-11T19:13:10.845Z,40.92
2023-02-11T19:15:45.522Z,52.63
2023-02-11T19:18:15.225Z,56.15
2023-02-11T19:20:43.706Z,36.30
2023-02-11T19:23:11.355Z,20.45
2023-02-11T19:25:45.586Z,17.75
2023-02-11T19:28:13.240Z,14.35
2023-02-11T19:30:40.441Z,13.25
2023-02-11T19:33:09.778Z,10.85
2023-02-11T19:35:37.033Z,11.27
2023-02-11T19:38:05.069Z,9.52
2023-02-11T19:40:32.501Z,12.80
2023-02-11T19:42:59.557Z,16.45
2023-02-11T19:45:27.090Z,14.50
2023-02-11T19:47:57.894Z,14.20
2023-02-11T19:50:25.475Z,12.65
2023-02-11T19:52:52.342Z,14.75
2023-02-11T19:55:19.282Z,17.08
2023-02-11T19:57:46.435Z,18.25
2023-02-11T20:00:13.772Z,19.35
2023-02-11T20:02:41.188Z,17.30
2023-02-11T20:05:09.086Z,16.63
2023-02-11T20:07:36.084Z,16.75
2023-02-11T20:10:03.395Z,16.95
2023-02-11T20:12:30.285Z,16.33
2023-02-11T20:14:57.180Z,16.90
2023-02-11T20:17:24.040Z,14.40
2023-02-11T20:19:51.616Z,10.90
2023-02-11T20:22:18.462Z,11.18
2023-02-11T20:24:45.416Z,10.98
2023-02-11T20:27:12.793Z,9.73
2023-02-11T20:29:40.007Z,11.25
2023-02-11T20:32:07.878Z,11.45
2023-02-11T20:34:34.839Z,11.25
2023-02-11T20:37:03.041Z,9.82
2023-02-11T20:39:30.210Z,13.23
2023-02-11T20:41:58.267Z,13.75
2023-02-11T20:44:25.121Z,15.52
2023-02-11T20:46:54.081Z,15.00
2023-02-11T20:49:24.107Z,11.45
2023-02-11T20:51:53.447Z,11.27
2023-02-11T20:54:21.190Z,12.95
2023-02-11T20:56:48.600Z,9.98
2023-02-11T20:59:16.765Z,9.00
2023-02-11T21:01:47.165Z,9.35
2023-02-11T21:04:20.137Z,11.18
2023-02-11T21:06:49.479Z,12.05
2023-02-11T21:09:21.950Z,12.00
2023-02-11T21:14:16.215Z,13.05
2023-02-11T21:16:42.994Z,11.82
2023-02-11T21:19:09.957Z,13.05
2023-02-11T21:21:37.932Z,12.27
2023-02-11T21:24:08.720Z,11.45
2023-02-11T21:26:35.859Z,10.48
2023-02-11T21:29:07.831Z,10.30
2023-02-11T21:31:36.415Z,11.63
2023-02-11T21:34:04.443Z,14.57
2023-02-11T21:36:31.534Z,14.70
2023-02-11T21:38:58.558Z,19.75
2023-02-11T21:41:27.043Z,19.92
2023-02-11T21:43:53.927Z,15.93
2023-02-11T21:46:21.630Z,16.27
2023-02-11T21:48:49.005Z,22.85
2023-02-11T21:51:24.341Z,32.13
2023-02-11T21:53:59.644Z,28.42
2023-02-11T21:56:29.780Z,22.92
2023-02-11T21:58:58.994Z,14.90
2023-02-11T22:01:32.654Z,8.80
2023-02-11T22:04:00.174Z,10.27
2023-02-11T22:06:33.211Z,14.05
2023-02-11T22:09:05.089Z,19.02
2023-02-11T22:11:32.191Z,25.80
2023-02-11T22:13:59.436Z,9.23
2023-02-11T22:16:27.330Z,8.48
2023-02-11T22:18:56.094Z,8.43
2023-02-11T22:21:23.176Z,6.90
2023-02-11T22:23:51.343Z,7.35
2023-02-11T22:26:21.565Z,8.18
2023-02-11T22:28:51.790Z,9.70
2023-02-11T22:31:30.907Z,10.65
2023-02-11T22:33:58.786Z,11.07
2023-02-11T22:36:28.985Z,12.38
2023-02-11T22:38:56.691Z,11.30
2023-02-11T22:41:23.682Z,10.30
2023-02-11T22:43:50.765Z,8.90
2023-02-11T22:46:19.222Z,7.70
2023-02-11T22:48:47.175Z,7.18
2023-02-11T22:51:17.171Z,6.13
2023-02-11T22:53:44.699Z,5.72
2023-02-11T22:56:15.658Z,5.55
2023-02-11T22:58:43.575Z,5.80
2023-02-11T23:01:11.252Z,6.35
2023-02-11T23:03:38.215Z,8.52
2023-02-11T23:06:05.692Z,7.90
2023-02-11T23:08:33.712Z,7.07
2023-02-11T23:11:11.945Z,5.75
2023-02-11T23:13:40.854Z,5.72
2023-02-11T23:16:10.544Z,5.95
2023-02-11T23:18:39.109Z,6.32
2023-02-11T23:21:11.404Z,6.00
2023-02-11T23:23:39.439Z,5.60
2023-02-11T23:26:11.130Z,5.95
2023-02-11T23:28:38.945Z,5.32
2023-02-11T23:31:19.513Z,5.72
2023-02-11T23:33:47.716Z,5.80
2023-02-11T23:36:15.445Z,6.43
2023-02-11T23:38:42.748Z,6.00
2023-02-11T23:41:10.699Z,5.25
2023-02-11T23:43:37.681Z,5.00
2023-02-11T23:46:05.821Z,5.10
2023-02-11T23:48:33.873Z,5.65
2023-02-11T23:51:00.737Z,6.07
2023-02-11T23:53:27.724Z,6.32
2023-02-11T23:55:55.039Z,7.30
2023-02-11T23:58:22.047Z,7.72
